Time;durP1;ratioP1;P1;durP2;ratioP2;P2;SDS_P1;SDS_P2;PMS_P1;PMS_P2;Temp;Humidity;BMP_temperature;BMP_pressure;BME280_temperature;BME280_humidity;BME280_pressure;Samples;Min_cycle;Max_cycle;Signal;HPM_P1;HPM_P2
2023/04/19 00:01:53;;;;;;;;;;;;;;;7.11;100.00;96116.94;10556561;28;2596;-77
2023/04/19 00:06:55;;;;;;;;;;;;;;;7.21;100.00;96113.63;10572540;27;2623;-78
2023/04/19 00:11:58;;;;;;;;;;;;;;;7.22;100.00;96109.91;10569152;28;2564;-77
2023/04/19 00:17:01;;;;;;;;;;;;;;;7.25;100.00;96109.41;10570702;28;2759;-79
2023/04/19 00:22:03;;;;;;;;;;;;;;;7.04;100.00;96100.25;10569453;27;2665;-78
2023/04/19 00:27:06;;;;;;;;;;;;;;;7.06;100.00;96098.16;10571241;27;2599;-78
2023/04/19 00:32:10;;;;;;;;;;;;;;;7.13;100.00;96098.00;10583767;27;2620;-78
2023/04/19 00:37:14;;;;;;;;;;;;;;;7.07;100.00;96099.78;10572679;28;2689;-77
2023/04/19 00:42:16;;;;;;;;;;;;;;;6.96;100.00;96096.13;10572441;27;2563;-77
2023/04/19 00:47:18;;;;;;;;;;;;;;;7.01;100.00;96090.06;10576235;27;2607;-77
2023/04/19 00:52:21;;;;;;;;;;;;;;;6.98;100.00;96086.00;10564759;28;2704;-78
2023/04/19 00:57:24;;;;;;;;;;;;;;;6.92;100.00;96076.28;10580584;27;2730;-77
2023/04/19 01:02:27;;;;;;;;;;;;;;;6.95;100.00;96086.50;10574118;27;2580;-78
2023/04/19 01:07:30;;;;;;;;;;;;;;;6.91;100.00;96081.88;10575536;27;2579;-78
2023/04/19 01:12:33;;;;;;;;;;;;;;;6.99;100.00;96082.28;10568506;28;2560;-78
2023/04/19 01:17:36;;;;;;;;;;;;;;;6.95;100.00;96067.78;10567194;28;2594;-79
2023/04/19 01:22:39;;;;;;;;;;;;;;;6.94;100.00;96068.84;10563744;28;2563;-77
2023/04/19 01:27:43;;;;;;;;;;;;;;;6.98;100.00;96059.28;10567916;27;2634;-77
2023/04/19 01:32:45;;;;;;;;;;;;;;;6.98;100.00;96059.28;10571326;27;2669;-78
2023/04/19 01:37:49;;;;;;;;;;;;;;;7.07;100.00;96050.88;10572166;27;1968;-79
2023/04/19 01:42:52;;;;;;;;;;;;;;;6.98;100.00;96043.25;10569177;28;2062;-78
2023/04/19 01:47:55;;;;;;;;;;;;;;;6.94;100.00;96052.00;10567066;28;2032;-77
2023/04/19 01:52:58;;;;;;;;;;;;;;;6.97;100.00;96046.16;10564916;27;2080;-77
2023/04/19 01:58:00;;;;;;;;;;;;;;;7.02;100.00;96039.03;10568405;28;2072;-77
2023/04/19 02:03:03;;;;;;;;;;;;;;;7.06;100.00;96034.00;10569405;27;1989;-78
2023/04/19 02:08:07;;;;;;;;;;;;;;;7.16;100.00;96038.69;10542242;28;1965;-78
2023/04/19 02:13:09;;;;;;;;;;;;;;;7.00;100.00;96035.00;10566220;27;1955;-78
2023/04/19 02:18:16;;;;;;;;;;;;;;;7.07;100.00;96034.84;10564535;28;1965;-78
2023/04/19 02:23:19;;;;;;;;;;;;;;;6.98;100.00;96029.06;10543203;28;1996;-78
2023/04/19 02:28:21;;;;;;;;;;;;;;;6.88;100.00;96026.25;10567755;28;1953;-78
2023/04/19 02:33:24;;;;;;;;;;;;;;;6.79;100.00;96023.16;10566595;28;1942;-78
2023/04/19 02:38:27;;;;;;;;;;;;;;;6.65;100.00;96016.53;10570620;28;1976;-76
2023/04/19 02:43:29;;;;;;;;;;;;;;;6.65;100.00;96017.34;10567932;28;1960;-76
2023/04/19 02:48:32;;;;;;;;;;;;;;;6.58;100.00;96015.88;10561871;28;2001;-77
2023/04/19 02:53:34;;;;;;;;;;;;;;;6.42;100.00;96014.81;10576562;28;1956;-77
2023/04/19 02:58:37;;;;;;;;;;;;;;;6.40;100.00;96015.06;10567724;28;1932;-76
2023/04/19 03:03:39;;;;;;;;;;;;;;;6.45;100.00;96001.00;10570313;28;1968;-78
2023/04/19 03:08:43;;;;;;;;;;;;;;;6.55;100.00;96001.13;10569694;28;1968;-76
2023/04/19 03:13:45;;;;;;;;;;;;;;;6.55;100.00;96003.00;10582355;28;1984;-78
2023/04/19 03:18:49;;;;;;;;;;;;;;;6.52;100.00;95995.50;10574535;27;1955;-75
2023/04/19 03:23:53;;;;;;;;;;;;;;;6.52;100.00;95995.50;10570675;27;1944;-77
2023/04/19 03:28:56;;;;;;;;;;;;;;;6.52;100.00;95988.28;10575095;27;1983;-77
2023/04/19 03:33:58;;;;;;;;;;;;;;;6.55;100.00;95986.97;10576372;27;1977;-77
2023/04/19 03:39:01;;;;;;;;;;;;;;;6.47;100.00;95978.31;10573190;27;2182;-77
2023/04/19 03:44:03;;;;;;;;;;;;;;;6.52;100.00;95980.28;10569983;28;1960;-77
2023/04/19 03:49:06;;;;;;;;;;;;;;;6.41;100.00;95973.13;10568129;27;2033;-77
2023/04/19 03:54:08;;;;;;;;;;;;;;;6.42;100.00;95975.56;10566700;27;2265;-77
2023/04/19 03:59:10;;;;;;;;;;;;;;;6.44;100.00;95965.47;10568522;27;1960;-77
2023/04/19 04:04:13;;;;;;;;;;;;;;;6.50;100.00;95969.84;10572347;27;2088;-77
2023/04/19 04:09:16;;;;;;;;;;;;;;;6.54;100.00;95972.00;10572747;28;1891;-77
2023/04/19 04:14:18;;;;;;;;;;;;;;;6.47;100.00;95972.97;10565734;27;2007;-77
2023/04/19 04:19:23;;;;;;;;;;;;;;;6.50;100.00;95977.84;10576710;27;1976;-77
2023/04/19 04:24:26;;;;;;;;;;;;;;;6.68;100.00;95975.97;10577718;27;2270;-75
2023/04/19 04:29:30;;;;;;;;;;;;;;;6.62;100.00;95979.63;10573754;28;2174;-74
2023/04/19 04:34:34;;;;;;;;;;;;;;;6.62;100.00;95977.78;10569028;27;1960;-77
2023/04/19 04:39:38;;;;;;;;;;;;;;;6.57;100.00;95974.22;10567433;28;2123;-76
2023/04/19 04:44:41;;;;;;;;;;;;;;;6.55;100.00;95979.78;10571316;27;1984;-77
2023/04/19 04:49:43;;;;;;;;;;;;;;;6.58;100.00;95978.50;10571055;27;2048;-76
2023/04/19 04:54:46;;;;;;;;;;;;;;;6.58;100.00;95981.16;10568491;27;2200;-77
2023/04/19 04:59:49;;;;;;;;;;;;;;;6.60;100.00;95977.19;10564973;28;1959;-76
2023/04/19 05:04:52;;;;;;;;;;;;;;;6.59;100.00;95964.09;10547024;28;1998;-75
2023/04/19 05:09:54;;;;;;;;;;;;;;;6.77;100.00;95963.84;10551368;27;1993;-75
2023/04/19 05:14:57;;;;;;;;;;;;;;;6.71;100.00;95964.81;10562755;28;2048;-77
2023/04/19 05:19:59;;;;;;;;;;;;;;;6.76;100.00;95959.53;10564377;27;2186;-76
2023/04/19 05:25:02;;;;;;;;;;;;;;;6.80;100.00;95966.00;10574997;27;1934;-75
2023/04/19 05:30:04;;;;;;;;;;;;;;;6.83;100.00;95968.19;10569716;27;1976;-76
2023/04/19 05:35:08;;;;;;;;;;;;;;;6.77;100.00;95966.50;10564503;28;2032;-77
2023/04/19 05:40:10;;;;;;;;;;;;;;;6.82;100.00;95958.56;10569476;28;1988;-77
2023/04/19 05:45:23;;;;;;;;;;;;;;;6.95;100.00;95962.75;10567050;27;2102;-76
2023/04/19 05:50:25;;;;;;;;;;;;;;;6.78;100.00;95957.44;10564131;28;1952;-78
2023/04/19 05:55:28;;;;;;;;;;;;;;;6.92;100.00;95952.53;10564318;27;2119;-79
2023/04/19 06:00:31;;;;;;;;;;;;;;;6.89;100.00;95953.06;10575090;27;1982;-79
2023/04/19 06:05:34;;;;;;;;;;;;;;;6.91;100.00;95951.75;10565354;28;1918;-78
2023/04/19 06:10:36;;;;;;;;;;;;;;;6.93;100.00;95954.16;10570776;28;2053;-74
2023/04/19 06:15:55;;;;;;;;;;;;;;;6.90;100.00;95955.47;10564981;28;1980;-76
2023/04/19 06:20:58;;;;;;;;;;;;;;;6.87;100.00;95961.31;10557907;28;2131;-75
2023/04/19 06:26:01;;;;;;;;;;;;;;;6.72;100.00;95956.53;10560022;28;2084;-72
2023/04/19 06:31:03;;;;;;;;;;;;;;;6.81;100.00;95956.13;10550165;28;1956;-73
2023/04/19 06:36:11;;;;;;;;;;;;;;;6.85;100.00;95952.72;10558808;28;2050;-74
2023/04/19 06:41:13;;;;;;;;;;;;;;;6.92;100.00;95948.00;10555312;28;1991;-74
2023/04/19 06:46:16;;;;;;;;;;;;;;;7.12;100.00;95941.31;10557719;28;1956;-75
2023/04/19 06:51:18;;;;;;;;;;;;;;;6.98;100.00;95939.00;10559103;28;2036;-74
2023/04/19 06:56:21;;;;;;;;;;;;;;;7.32;100.00;95938.94;10571086;28;1971;-73
2023/04/19 07:01:24;;;;;;;;;;;;;;;7.45;100.00;95929.72;10573285;28;1936;-74
2023/04/19 07:06:26;;;;;;;;;;;;;;;7.62;100.00;95929.63;10565638;28;2111;-74
2023/04/19 07:11:29;;;;;;;;;;;;;;;7.43;100.00;95932.63;10565320;28;1993;-76
2023/04/19 07:16:31;;;;;;;;;;;;;;;7.99;100.00;95927.88;10566078;28;2058;-76
2023/04/19 07:21:34;;;;;;;;;;;;;;;7.99;100.00;95914.50;10569911;27;1968;-73
2023/04/19 07:26:37;;;;;;;;;;;;;;;8.73;100.00;95903.06;10568613;28;1913;-76
2023/04/19 07:31:40;;;;;;;;;;;;;;;9.34;100.00;95903.38;10570152;28;1972;-74
2023/04/19 07:36:43;;;;;;;;;;;;;;;9.82;100.00;95887.16;10567508;28;1974;-75
2023/04/19 07:41:46;;;;;;;;;;;;;;;9.80;100.00;95890.09;10570281;28;1957;-75
2023/04/19 07:46:48;;;;;;;;;;;;;;;10.51;100.00;95884.00;10564209;28;1991;-74
2023/04/19 07:51:51;;;;;;;;;;;;;;;10.45;100.00;95874.34;10569588;28;1940;-74
2023/04/19 07:56:53;;;;;;;;;;;;;;;10.88;100.00;95872.09;10542550;27;1944;-76
2023/04/19 08:01:56;;;;;;;;;;;;;;;10.72;100.00;95871.34;10563010;28;1984;-76
2023/04/19 08:06:59;;;;;;;;;;;;;;;10.68;100.00;95868.38;10567358;28;1877;-77
2023/04/19 08:12:02;;;;;;;;;;;;;;;10.35;100.00;95867.06;10564082;28;1974;-76
2023/04/19 08:17:04;;;;;;;;;;;;;;;10.07;100.00;95868.38;10563331;28;2049;-75
2023/04/19 08:22:27;;;;;;;;;;;;;;;10.19;100.00;95870.81;10571523;28;1958;-77
2023/04/19 08:27:30;;;;;;;;;;;;;;;10.52;100.00;95866.78;10552853;28;1964;-76
2023/04/19 08:32:33;;;;;;;;;;;;;;;10.92;100.00;95852.47;10552150;28;2417;-78
2023/04/19 08:37:36;;;;;;;;;;;;;;;11.35;100.00;95856.34;10577029;28;1961;-76
2023/04/19 08:42:39;;;;;;;;;;;;;;;11.84;100.00;95846.69;10573899;28;1934;-76
2023/04/19 08:47:42;;;;;;;;;;;;;;;11.51;100.00;95848.97;10565494;28;1968;-77
2023/04/19 08:52:47;;;;;;;;;;;;;;;11.29;100.00;95845.88;10571360;28;1959;-76
2023/04/19 08:58:02;;;;;;;;;;;;;;;11.05;100.00;95841.13;10568799;28;2111;-77
2023/04/19 09:03:07;;;;;;;;;;;;;;;10.86;100.00;95839.31;10570585;27;1988;-75
2023/04/19 09:08:09;;;;;;;;;;;;;;;11.24;100.00;95833.25;10569944;27;2016;-74
2023/04/19 09:13:15;;;;;;;;;;;;;;;11.77;100.00;95820.03;10573226;28;1988;-76
2023/04/19 09:18:18;;;;;;;;;;;;;;;11.73;100.00;95816.28;10564385;28;2072;-74
2023/04/19 09:23:21;;;;;;;;;;;;;;;12.10;100.00;95814.97;10560072;28;1951;-77
2023/04/19 09:28:24;;;;;;;;;;;;;;;12.40;100.00;95816.59;10542982;27;1962;-76
2023/04/19 09:33:26;;;;;;;;;;;;;;;12.37;100.00;95801.78;10559447;27;1930;-75
2023/04/19 09:38:29;;;;;;;;;;;;;;;13.23;100.00;95785.75;10545460;28;1988;-78
2023/04/19 09:43:32;;;;;;;;;;;;;;;13.92;100.00;95786.94;10559960;28;2055;-75
2023/04/19 09:48:37;;;;;;;;;;;;;;;13.73;100.00;95780.75;10566342;28;2048;-78
2023/04/19 09:53:39;;;;;;;;;;;;;;;13.65;100.00;95773.31;10560678;28;1959;-78
2023/04/19 09:58:43;;;;;;;;;;;;;;;13.53;100.00;95768.34;10562269;27;2349;-75
2023/04/19 10:03:57;;;;;;;;;;;;;;;13.44;100.00;95759.31;10562140;28;1965;-76
2023/04/19 10:09:15;;;;;;;;;;;;;;;13.25;100.00;95756.59;10559345;28;2098;-77
2023/04/19 10:14:24;;;;;;;;;;;;;;;12.99;100.00;95756.91;10560155;28;1956;-77
2023/04/19 10:19:28;;;;;;;;;;;;;;;12.42;100.00;95752.44;10560282;28;2015;-76
2023/04/19 10:24:31;;;;;;;;;;;;;;;12.09;100.00;95759.50;10559053;28;1936;-76
2023/04/19 10:29:33;;;;;;;;;;;;;;;12.18;100.00;95745.09;10562981;28;2004;-75
2023/04/19 10:34:35;;;;;;;;;;;;;;;11.19;100.00;95740.97;10562830;28;1949;-75
2023/04/19 10:39:38;;;;;;;;;;;;;;;11.15;100.00;95735.38;10560180;28;1965;-78
2023/04/19 10:44:41;;;;;;;;;;;;;;;11.24;100.00;95731.00;10561101;28;1964;-77
2023/04/19 10:49:44;;;;;;;;;;;;;;;11.14;100.00;95735.66;10546053;28;1932;-75
2023/04/19 10:54:46;;;;;;;;;;;;;;;11.00;100.00;95725.47;10564058;28;1969;-76
2023/04/19 10:59:49;;;;;;;;;;;;;;;10.79;100.00;95719.41;10563317;28;2144;-74
2023/04/19 11:04:51;;;;;;;;;;;;;;;10.62;100.00;95708.16;10558852;28;2084;-75
2023/04/19 11:09:54;;;;;;;;;;;;;;;10.25;100.00;95717.44;10557730;28;2024;-75
2023/04/19 11:14:56;;;;;;;;;;;;;;;10.37;100.00;95708.25;10556970;28;1975;-75
2023/04/19 11:20:00;;;;;;;;;;;;;;;10.25;100.00;95703.22;10555872;28;2047;-75
2023/04/19 11:25:03;;;;;;;;;;;;;;;10.22;100.00;95703.72;10559509;28;1897;-76
2023/04/19 11:30:05;;;;;;;;;;;;;;;10.17;100.00;95696.47;10558798;28;1949;-77
2023/04/19 11:35:08;;;;;;;;;;;;;;;9.94;100.00;95694.38;10555615;28;1914;-76
2023/04/19 11:40:11;;;;;;;;;;;;;;;9.35;100.00;95713.69;10544987;27;2116;-76
2023/04/19 11:45:14;;;;;;;;;;;;;;;8.30;100.00;95721.94;10567852;28;2119;-76
2023/04/19 11:50:29;;;;;;;;;;;;;;;8.03;100.00;95728.22;10564784;27;1973;-77
2023/04/19 11:55:33;;;;;;;;;;;;;;;7.71;100.00;95730.13;10565515;27;2017;-75
2023/04/19 12:00:35;;;;;;;;;;;;;;;7.54;100.00;95732.94;10562673;27;2036;-76
2023/04/19 12:05:39;;;;;;;;;;;;;;;7.65;100.00;95731.16;10563089;28;1948;-75
2023/04/19 12:10:41;;;;;;;;;;;;;;;7.67;100.00;95731.69;10559834;28;2040;-77
2023/04/19 12:15:44;;;;;;;;;;;;;;;7.70;100.00;95731.19;10562869;27;2003;-76
2023/04/19 12:20:49;;;;;;;;;;;;;;;7.86;100.00;95727.56;10566689;27;1945;-77
2023/04/19 12:25:52;;;;;;;;;;;;;;;7.97;100.00;95729.25;10563820;27;1931;-76
2023/04/19 12:30:55;;;;;;;;;;;;;;;7.97;100.00;95718.53;10563442;28;1937;-75
2023/04/19 12:35:58;;;;;;;;;;;;;;;7.37;100.00;95718.88;10567036;28;1975;-75
2023/04/19 12:41:03;;;;;;;;;;;;;;;7.17;100.00;95722.97;10562892;27;1953;-77
2023/04/19 12:46:06;;;;;;;;;;;;;;;7.11;100.00;95715.16;10540307;27;2140;-77
2023/04/19 12:51:08;;;;;;;;;;;;;;;7.25;100.00;95716.38;10559265;28;1956;-78
2023/04/19 12:56:11;;;;;;;;;;;;;;;7.23;100.00;95713.94;10563128;28;1980;-77
2023/04/19 13:01:14;;;;;;;;;;;;;;;7.22;100.00;95709.66;10561316;28;2062;-75
2023/04/19 13:06:16;;;;;;;;;;;;;;;7.07;100.00;95711.41;10564190;28;2002;-76
2023/04/19 13:11:21;;;;;;;;;;;;;;;7.11;100.00;95699.13;10566119;28;2035;-75
2023/04/19 13:16:25;;;;;;;;;;;;;;;7.20;100.00;95703.78;10567134;28;1942;-76
2023/04/19 13:21:27;;;;;;;;;;;;;;;7.32;100.00;95700.94;10542874;28;1933;-76
2023/04/19 13:26:30;;;;;;;;;;;;;;;7.42;100.00;95702.88;10559584;28;2028;-76
2023/04/19 13:31:33;;;;;;;;;;;;;;;7.19;100.00;95696.81;10562681;28;1986;-74
2023/04/19 13:36:36;;;;;;;;;;;;;;;7.21;100.00;95693.88;10562905;28;1937;-75
2023/04/19 13:41:39;;;;;;;;;;;;;;;7.06;100.00;95689.19;10567497;28;1965;-77
2023/04/19 13:46:41;;;;;;;;;;;;;;;7.31;100.00;95685.94;10560906;28;1932;-77
2023/04/19 13:51:43;;;;;;;;;;;;;;;7.43;100.00;95689.25;10565210;28;1958;-77
2023/04/19 13:56:52;;;;;;;;;;;;;;;7.24;100.00;95688.81;10562190;27;1940;-76
2023/04/19 14:01:54;;;;;;;;;;;;;;;7.10;100.00;95684.97;10563715;28;1949;-77
2023/04/19 14:06:57;;;;;;;;;;;;;;;6.55;100.00;95701.22;10558673;28;1999;-75
2023/04/19 14:12:01;;;;;;;;;;;;;;;6.21;100.00;95698.69;10557702;28;2073;-78
2023/04/19 14:17:04;;;;;;;;;;;;;;;6.21;100.00;95707.50;10542050;28;2003;-76
2023/04/19 14:22:07;;;;;;;;;;;;;;;6.05;100.00;95712.88;10561821;28;1954;-77
2023/04/19 14:27:10;;;;;;;;;;;;;;;5.97;100.00;95708.75;10567980;28;1979;-78
2023/04/19 14:32:14;;;;;;;;;;;;;;;5.72;100.00;95709.16;10566883;28;2119;-78
2023/04/19 14:37:19;;;;;;;;;;;;;;;5.48;100.00;95721.09;10568146;28;1987;-77
2023/04/19 14:42:22;;;;;;;;;;;;;;;5.33;100.00;95726.97;10571215;28;2127;-78
2023/04/19 14:47:25;;;;;;;;;;;;;;;5.31;100.00;95727.22;10570468;28;1998;-77
2023/04/19 14:52:29;;;;;;;;;;;;;;;5.26;100.00;95718.31;10563972;28;1938;-78
2023/04/19 14:57:32;;;;;;;;;;;;;;;5.00;100.00;95719.72;10569649;28;1964;-77
2023/04/19 15:02:34;;;;;;;;;;;;;;;4.80;100.00;95725.50;10564565;28;1930;-78
2023/04/19 15:07:37;;;;;;;;;;;;;;;4.68;100.00;95727.41;10575867;28;2138;-77
2023/04/19 15:12:40;;;;;;;;;;;;;;;4.61;100.00;95727.53;10571205;28;1954;-77
2023/04/19 15:17:42;;;;;;;;;;;;;;;4.65;100.00;95723.38;10580425;27;1995;-78
2023/04/19 15:22:45;;;;;;;;;;;;;;;4.68;100.00;95730.88;10574316;27;1917;-76
2023/04/19 15:27:48;;;;;;;;;;;;;;;4.72;100.00;95741.88;10575815;27;1925;-78
2023/04/19 15:32:53;;;;;;;;;;;;;;;4.54;100.00;95740.19;10573601;28;1975;-76
2023/04/19 15:37:56;;;;;;;;;;;;;;;4.52;100.00;95742.28;10579543;27;1960;-76
2023/04/19 15:42:58;;;;;;;;;;;;;;;4.54;100.00;95748.97;10573198;28;2014;-77
2023/04/19 15:48:01;;;;;;;;;;;;;;;4.38;100.00;95754.22;10577885;27;2012;-78
2023/04/19 15:53:04;;;;;;;;;;;;;;;4.39;100.00;95748.69;10579027;27;1959;-78
2023/04/19 15:58:08;;;;;;;;;;;;;;;4.37;100.00;95756.06;10581460;27;1927;-77
2023/04/19 16:03:11;;;;;;;;;;;;;;;4.48;100.00;95754.44;10572832;27;2016;-78
2023/04/19 16:08:18;;;;;;;;;;;;;;;4.40;100.00;95754.81;10580508;27;1985;-78
2023/04/19 16:13:20;;;;;;;;;;;;;;;4.45;100.00;95752.22;10581834;28;1983;-76
2023/04/19 16:18:23;;;;;;;;;;;;;;;4.55;100.00;95763.09;10565432;27;2011;-75
2023/04/19 16:23:25;;;;;;;;;;;;;;;4.45;100.00;95763.69;10578774;28;1948;-78
2023/04/19 16:28:29;;;;;;;;;;;;;;;4.33;100.00;95770.91;10578049;28;1917;-78
2023/04/19 16:33:41;;;;;;;;;;;;;;;4.23;100.00;95765.38;10570712;27;1913;-78
2023/04/19 16:38:44;;;;;;;;;;;;;;;3.94;100.00;95775.91;10571851;28;1964;-77
2023/04/19 16:43:53;;;;;;;;;;;;;;;3.67;100.00;95767.56;10573043;28;2026;-77
2023/04/19 16:49:07;;;;;;;;;;;;;;;3.66;100.00;95760.63;10569699;27;1973;-77
2023/04/19 16:54:10;;;;;;;;;;;;;;;3.64;100.00;95756.59;10568934;28;2423;-78
2023/04/19 16:59:13;;;;;;;;;;;;;;;3.67;100.00;95761.44;10569239;28;1965;-77
2023/04/19 17:04:16;;;;;;;;;;;;;;;3.78;100.00;95758.00;10549096;27;1968;-77
2023/04/19 17:09:20;;;;;;;;;;;;;;;3.92;100.00;95742.59;10571502;28;1941;-77
2023/04/19 17:14:22;;;;;;;;;;;;;;;4.07;100.00;95740.25;10568717;27;2068;-78
2023/04/19 17:19:25;;;;;;;;;;;;;;;4.08;100.00;95720.63;10565895;28;1952;-77
2023/04/19 17:24:27;;;;;;;;;;;;;;;4.16;100.00;95716.78;10548547;28;1971;-76
2023/04/19 17:29:30;;;;;;;;;;;;;;;4.17;100.00;95707.75;10561635;27;1932;-76
2023/04/19 17:34:34;;;;;;;;;;;;;;;4.24;100.00;95705.78;10571423;27;1980;-76
2023/04/19 17:39:38;;;;;;;;;;;;;;;4.23;100.00;95704.16;10562367;28;2068;-77
2023/04/19 17:44:40;;;;;;;;;;;;;;;4.13;100.00;95711.94;10568259;28;1926;-74
2023/04/19 17:49:43;;;;;;;;;;;;;;;4.04;100.00;95711.50;10568317;27;1982;-77
2023/04/19 17:54:46;;;;;;;;;;;;;;;4.24;100.00;95719.88;10562177;28;1982;-76
2023/04/19 17:59:49;;;;;;;;;;;;;;;4.23;100.00;95723.59;10562827;28;1965;-77
2023/04/19 18:04:51;;;;;;;;;;;;;;;4.25;100.00;95718.84;10556325;27;2048;-77
2023/04/19 18:09:55;;;;;;;;;;;;;;;4.34;100.00;95721.97;10560921;28;1996;-78
2023/04/19 18:14:57;;;;;;;;;;;;;;;4.31;100.00;95719.75;10582546;27;1934;-74
2023/04/19 18:20:03;;;;;;;;;;;;;;;4.29;100.00;95712.00;10562428;28;1988;-78
2023/04/19 18:25:16;;;;;;;;;;;;;;;4.34;100.00;95708.66;10565156;28;2067;-74
2023/04/19 18:30:20;;;;;;;;;;;;;;;4.28;100.00;95714.91;10564950;27;2289;-76
2023/04/19 18:35:23;;;;;;;;;;;;;;;4.30;100.00;95728.78;10566396;28;1973;-77
2023/04/19 18:40:25;;;;;;;;;;;;;;;4.24;100.00;95730.53;10565070;28;2088;-79
2023/04/19 18:45:30;;;;;;;;;;;;;;;4.22;100.00;95737.94;10568502;28;2151;-76
2023/04/19 18:50:32;;;;;;;;;;;;;;;4.33;100.00;95750.44;10572285;28;2037;-79
2023/04/19 18:55:35;;;;;;;;;;;;;;;4.27;100.00;95761.19;10576669;27;1984;-77
2023/04/19 19:00:37;;;;;;;;;;;;;;;4.30;100.00;95760.72;10571143;28;1988;-77
2023/04/19 19:05:40;;;;;;;;;;;;;;;4.22;100.00;95763.75;10555749;27;1975;-78
2023/04/19 19:10:43;;;;;;;;;;;;;;;4.28;100.00;95760.97;10570703;27;1916;-78
2023/04/19 19:15:48;;;;;;;;;;;;;;;4.31;100.00;95757.00;10570051;28;2150;-78
2023/04/19 19:20:50;;;;;;;;;;;;;;;4.34;100.00;95757.38;10570139;28;2199;-78
2023/04/19 19:25:53;;;;;;;;;;;;;;;4.46;100.00;95764.53;10573817;27;2016;-79
2023/04/19 19:30:56;;;;;;;;;;;;;;;4.44;100.00;95761.25;10577543;27;1946;-79
2023/04/19 19:35:58;;;;;;;;;;;;;;;4.37;100.00;95761.41;10556654;27;2112;-79
2023/04/19 19:41:01;;;;;;;;;;;;;;;4.41;100.00;95769.75;10575555;27;2072;-77
2023/04/19 19:46:06;;;;;;;;;;;;;;;4.36;100.00;95780.28;10577594;28;2220;-76
2023/04/19 19:51:12;;;;;;;;;;;;;;;4.29;100.00;95765.25;10570714;27;2099;-76
2023/04/19 19:56:35;;;;;;;;;;;;;;;4.34;100.00;95759.22;10574139;27;1941;-78
2023/04/19 20:01:50;;;;;;;;;;;;;;;4.36;100.00;95754.47;10571332;28;1970;-79
2023/04/19 20:06:54;;;;;;;;;;;;;;;4.32;100.00;95748.78;10570926;28;1956;-78
2023/04/19 20:12:12;;;;;;;;;;;;;;;4.21;100.00;95746.97;10572456;28;1961;-78
2023/04/19 20:17:14;;;;;;;;;;;;;;;4.25;100.00;95741.97;10575583;28;2184;-77
2023/04/19 20:22:18;;;;;;;;;;;;;;;4.24;100.00;95733.19;10574745;27;1983;-78
2023/04/19 20:27:21;;;;;;;;;;;;;;;4.30;100.00;95747.41;10567111;27;1962;-79
2023/04/19 20:32:23;;;;;;;;;;;;;;;4.29;100.00;95748.47;10565757;28;2009;-78
2023/04/19 20:37:29;;;;;;;;;;;;;;;4.26;100.00;95747.09;10566963;28;2178;-77
2023/04/19 20:42:32;;;;;;;;;;;;;;;4.26;100.00;95743.59;10569587;28;1976;-78
2023/04/19 20:47:36;;;;;;;;;;;;;;;4.22;100.00;95737.16;10568830;27;1996;-78
2023/04/19 20:52:38;;;;;;;;;;;;;;;4.30;100.00;95737.56;10566874;27;2063;-79
2023/04/19 20:57:40;;;;;;;;;;;;;;;4.28;100.00;95737.00;10564676;27;2118;-77
2023/04/19 21:02:43;;;;;;;;;;;;;;;4.19;100.00;95733.09;10563485;28;2043;-77
2023/04/19 21:07:46;;;;;;;;;;;;;;;4.25;100.00;95729.47;10568267;27;1986;-78
2023/04/19 21:12:48;;;;;;;;;;;;;;;4.21;100.00;95725.69;10565739;28;1936;-79
2023/04/19 21:17:50;;;;;;;;;;;;;;;4.16;100.00;95706.97;10568031;28;1993;-78
2023/04/19 21:22:53;;;;;;;;;;;;;;;4.17;100.00;95703.25;10562511;28;1953;-77
2023/04/19 21:27:55;;;;;;;;;;;;;;;4.20;100.00;95700.13;10566869;28;1926;-77
2023/04/19 21:32:58;;;;;;;;;;;;;;;4.13;100.00;95696.78;10545360;28;2141;-77
2023/04/19 21:38:00;;;;;;;;;;;;;;;4.05;100.00;95689.16;10561997;27;2012;-80
2023/04/19 21:43:03;;;;;;;;;;;;;;;4.04;100.00;95684.88;10569467;27;2083;-79
2023/04/19 21:48:06;;;;;;;;;;;;;;;4.11;100.00;95680.25;10567016;28;2250;-80
2023/04/19 21:53:08;;;;;;;;;;;;;;;4.14;100.00;95682.44;10565015;27;1997;-78
2023/04/19 21:58:11;;;;;;;;;;;;;;;4.13;100.00;95683.47;10563349;28;2043;-77
2023/04/19 22:03:13;;;;;;;;;;;;;;;4.13;100.00;95688.78;10562459;28;1954;-79
2023/04/19 22:08:17;;;;;;;;;;;;;;;4.10;100.00;95678.63;10561895;27;1973;-78
2023/04/19 22:13:20;;;;;;;;;;;;;;;4.12;100.00;95678.38;10565742;27;2084;-78
2023/04/19 22:18:23;;;;;;;;;;;;;;;4.19;100.00;95669.22;10565340;28;1982;-79
2023/04/19 22:23:26;;;;;;;;;;;;;;;4.20;100.00;95668.22;10562701;28;1981;-78
2023/04/19 22:28:29;;;;;;;;;;;;;;;4.11;100.00;95671.47;10563168;28;1926;-78
2023/04/19 22:33:32;;;;;;;;;;;;;;;4.08;100.00;95654.13;10560021;27;2104;-79
2023/04/19 22:38:34;;;;;;;;;;;;;;;4.04;100.00;95660.94;10543081;28;2090;-79
2023/04/19 22:43:37;;;;;;;;;;;;;;;3.94;100.00;95666.84;10558043;28;2031;-79
2023/04/19 22:48:41;;;;;;;;;;;;;;;3.95;100.00;95665.03;10563413;28;2040;-78
2023/04/19 22:53:44;;;;;;;;;;;;;;;4.02;100.00;95663.03;10567369;28;1959;-78
2023/04/19 22:58:47;;;;;;;;;;;;;;;4.00;100.00;95659.78;10558688;28;1999;-78
2023/04/19 23:03:49;;;;;;;;;;;;;;;3.98;100.00;95656.56;10565330;28;2025;-78
2023/04/19 23:08:55;;;;;;;;;;;;;;;3.97;100.00;95655.75;10569177;28;2084;-80
2023/04/19 23:13:57;;;;;;;;;;;;;;;3.82;100.00;95641.31;10567680;28;2041;-80
2023/04/19 23:19:00;;;;;;;;;;;;;;;3.90;100.00;95644.44;10568636;28;1980;-77
2023/04/19 23:24:02;;;;;;;;;;;;;;;3.89;100.00;95629.53;10566273;28;2143;-78
2023/04/19 23:29:05;;;;;;;;;;;;;;;3.85;100.00;95620.41;10564642;28;1997;-77
2023/04/19 23:34:08;;;;;;;;;;;;;;;3.70;100.00;95628.06;10564221;28;1937;-78
2023/04/19 23:39:10;;;;;;;;;;;;;;;3.72;100.00;95613.50;10555495;27;1984;-79
2023/04/19 23:44:13;;;;;;;;;;;;;;;3.73;100.00;95599.16;10571442;28;2150;-80
2023/04/19 23:49:16;;;;;;;;;;;;;;;3.41;100.00;95598.75;10567066;27;1985;-79
2023/04/19 23:54:21;;;;;;;;;;;;;;;3.57;100.00;95602.56;10568684;28;1981;-78
2023/04/19 23:59:25;;;;;;;;;;;;;;;3.51;100.00;95590.19;10571566;28;2076;-80
